sensor_id;sensor_type;location;lat;lon;timestamp;pressure;altitude;pressure_sealevel;temperature;humidity
3668;BME280;24099;47.102;15.440;2022-07-21T00:00:16;97302.31;;;17.45;100.00
3668;BME280;24099;47.102;15.440;2022-07-21T00:02:46;97301.88;;;17.48;100.00
3668;BME280;24099;47.102;15.440;2022-07-21T00:05:14;97299.94;;;17.37;100.00
3668;BME280;24099;47.102;15.440;2022-07-21T00:07:42;97303.28;;;17.32;100.00
3668;BME280;24099;47.102;15.440;2022-07-21T00:10:14;97303.72;;;17.29;100.00
3668;BME280;24099;47.102;15.440;2022-07-21T00:12:42;97298.88;;;17.19;100.00
3668;BME280;24099;47.102;15.440;2022-07-21T00:15:12;97300.06;;;17.05;100.00
3668;BME280;24099;47.102;15.440;2022-07-21T00:17:40;97292.09;;;17.05;100.00
3668;BME280;24099;47.102;15.440;2022-07-21T00:20:11;97294.50;;;16.88;100.00
3668;BME280;24099;47.102;15.440;2022-07-21T00:22:40;97295.38;;;17.01;100.00
3668;BME280;24099;47.102;15.440;2022-07-21T00:25:11;97296.66;;;16.98;100.00
3668;BME280;24099;47.102;15.440;2022-07-21T00:27:39;97304.88;;;17.15;100.00
3668;BME280;24099;47.102;15.440;2022-07-21T00:30:09;97301.03;;;17.11;100.00
3668;BME280;24099;47.102;15.440;2022-07-21T00:32:38;97302.88;;;17.10;100.00
3668;BME280;24099;47.102;15.440;2022-07-21T00:35:09;97311.53;;;17.24;100.00
3668;BME280;24099;47.102;15.440;2022-07-21T00:37:37;97307.81;;;17.07;100.00
3668;BME280;24099;47.102;15.440;2022-07-21T00:40:07;97308.72;;;17.19;100.00
3668;BME280;24099;47.102;15.440;2022-07-21T00:42:36;97309.31;;;17.21;100.00
3668;BME280;24099;47.102;15.440;2022-07-21T00:45:06;97302.47;;;16.88;100.00
3668;BME280;24099;47.102;15.440;2022-07-21T00:47:34;97297.00;;;16.83;100.00
3668;BME280;24099;47.102;15.440;2022-07-21T00:50:08;97296.28;;;16.95;100.00
3668;BME280;24099;47.102;15.440;2022-07-21T00:52:37;97293.41;;;16.96;100.00
3668;BME280;24099;47.102;15.440;2022-07-21T00:55:07;97285.06;;;17.11;100.00
3668;BME280;24099;47.102;15.440;2022-07-21T00:57:37;97286.72;;;16.87;100.00
3668;BME280;24099;47.102;15.440;2022-07-21T01:00:07;97288.06;;;16.78;100.00
3668;BME280;24099;47.102;15.440;2022-07-21T01:02:35;97282.50;;;16.79;100.00
3668;BME280;24099;47.102;15.440;2022-07-21T01:05:04;97289.81;;;16.84;100.00
3668;BME280;24099;47.102;15.440;2022-07-21T01:07:32;97291.28;;;16.80;100.00
3668;BME280;24099;47.102;15.440;2022-07-21T01:10:02;97282.56;;;16.73;100.00
3668;BME280;24099;47.102;15.440;2022-07-21T01:12:30;97282.16;;;16.76;100.00
3668;BME280;24099;47.102;15.440;2022-07-21T01:14:58;97288.28;;;16.76;100.00
3668;BME280;24099;47.102;15.440;2022-07-21T01:17:26;97295.78;;;16.79;100.00
3668;BME280;24099;47.102;15.440;2022-07-21T01:20:00;97294.25;;;16.72;100.00
3668;BME280;24099;47.102;15.440;2022-07-21T01:22:31;97293.88;;;16.62;100.00
3668;BME280;24099;47.102;15.440;2022-07-21T01:24:59;97293.47;;;16.33;100.00
3668;BME280;24099;47.102;15.440;2022-07-21T01:27:28;97294.84;;;16.42;100.00
3668;BME280;24099;47.102;15.440;2022-07-21T01:29:56;97292.56;;;16.46;100.00
3668;BME280;24099;47.102;15.440;2022-07-21T01:32:25;97290.91;;;16.51;100.00
3668;BME280;24099;47.102;15.440;2022-07-21T01:34:53;97288.84;;;16.53;100.00
3668;BME280;24099;47.102;15.440;2022-07-21T01:37:22;97290.09;;;16.51;100.00
3668;BME280;24099;47.102;15.440;2022-07-21T01:39:52;97282.06;;;16.58;100.00
3668;BME280;24099;47.102;15.440;2022-07-21T01:42:36;97284.25;;;16.61;100.00
3668;BME280;24099;47.102;15.440;2022-07-21T01:45:06;97287.84;;;16.48;100.00
3668;BME280;24099;47.102;15.440;2022-07-21T01:47:36;97285.03;;;16.43;100.00
3668;BME280;24099;47.102;15.440;2022-07-21T01:50:05;97276.44;;;16.41;100.00
3668;BME280;24099;47.102;15.440;2022-07-21T01:52:33;97277.19;;;16.23;100.00
3668;BME280;24099;47.102;15.440;2022-07-21T01:55:02;97282.28;;;16.25;100.00
3668;BME280;24099;47.102;15.440;2022-07-21T01:57:30;97284.50;;;16.34;100.00
3668;BME280;24099;47.102;15.440;2022-07-21T01:59:57;97278.56;;;16.32;100.00
3668;BME280;24099;47.102;15.440;2022-07-21T02:02:25;97285.72;;;16.32;100.00
3668;BME280;24099;47.102;15.440;2022-07-21T02:04:53;97280.41;;;16.32;100.00
3668;BME280;24099;47.102;15.440;2022-07-21T02:07:20;97274.88;;;16.02;100.00
3668;BME280;24099;47.102;15.440;2022-07-21T02:09:48;97272.97;;;16.15;100.00
3668;BME280;24099;47.102;15.440;2022-07-21T02:12:17;97276.88;;;16.13;100.00
3668;BME280;24099;47.102;15.440;2022-07-21T02:14:44;97268.47;;;16.16;100.00
3668;BME280;24099;47.102;15.440;2022-07-21T02:17:12;97267.94;;;16.01;100.00
3668;BME280;24099;47.102;15.440;2022-07-21T02:19:40;97264.09;;;15.97;100.00
3668;BME280;24099;47.102;15.440;2022-07-21T02:22:08;97267.91;;;16.07;100.00
3668;BME280;24099;47.102;15.440;2022-07-21T02:24:35;97280.13;;;16.15;100.00
3668;BME280;24099;47.102;15.440;2022-07-21T02:27:03;97274.81;;;16.15;100.00
3668;BME280;24099;47.102;15.440;2022-07-21T02:29:32;97273.84;;;16.03;100.00
3668;BME280;24099;47.102;15.440;2022-07-21T02:32:00;97272.41;;;16.07;100.00
3668;BME280;24099;47.102;15.440;2022-07-21T02:34:27;97273.56;;;16.17;100.00
3668;BME280;24099;47.102;15.440;2022-07-21T02:36:55;97272.81;;;16.04;100.00
3668;BME280;24099;47.102;15.440;2022-07-21T02:39:22;97274.66;;;16.03;100.00
3668;BME280;24099;47.102;15.440;2022-07-21T02:41:52;97268.13;;;16.06;100.00
3668;BME280;24099;47.102;15.440;2022-07-21T02:44:19;97269.31;;;16.10;100.00
3668;BME280;24099;47.102;15.440;2022-07-21T02:46:49;97267.13;;;16.00;100.00
3668;BME280;24099;47.102;15.440;2022-07-21T02:49:16;97265.97;;;15.90;100.00
3668;BME280;24099;47.102;15.440;2022-07-21T02:51:44;97264.16;;;15.83;100.00
3668;BME280;24099;47.102;15.440;2022-07-21T02:54:12;97261.47;;;15.90;100.00
3668;BME280;24099;47.102;15.440;2022-07-21T02:56:39;97258.66;;;15.85;100.00
3668;BME280;24099;47.102;15.440;2022-07-21T02:59:07;97261.44;;;15.97;100.00
3668;BME280;24099;47.102;15.440;2022-07-21T03:01:34;97262.00;;;15.67;100.00
3668;BME280;24099;47.102;15.440;2022-07-21T03:04:03;97261.97;;;15.74;100.00
3668;BME280;24099;47.102;15.440;2022-07-21T03:06:31;97262.97;;;15.79;100.00
3668;BME280;24099;47.102;15.440;2022-07-21T03:08:59;97268.66;;;15.83;100.00
3668;BME280;24099;47.102;15.440;2022-07-21T03:11:26;97276.63;;;15.83;100.00
3668;BME280;24099;47.102;15.440;2022-07-21T03:13:53;97271.72;;;15.80;100.00
3668;BME280;24099;47.102;15.440;2022-07-21T03:16:21;97279.69;;;15.80;100.00
3668;BME280;24099;47.102;15.440;2022-07-21T03:18:49;97271.31;;;15.83;100.00
3668;BME280;24099;47.102;15.440;2022-07-21T03:21:18;97280.41;;;15.62;100.00
3668;BME280;24099;47.102;15.440;2022-07-21T03:23:45;97278.34;;;15.64;100.00
3668;BME280;24099;47.102;15.440;2022-07-21T03:26:14;97272.41;;;15.69;100.00
3668;BME280;24099;47.102;15.440;2022-07-21T03:28:43;97270.38;;;15.64;100.00
3668;BME280;24099;47.102;15.440;2022-07-21T03:31:10;97273.47;;;15.61;100.00
3668;BME280;24099;47.102;15.440;2022-07-21T03:33:38;97281.38;;;15.74;100.00
3668;BME280;24099;47.102;15.440;2022-07-21T03:36:06;97270.56;;;15.69;100.00
3668;BME280;24099;47.102;15.440;2022-07-21T03:38:35;97275.28;;;15.67;100.00
3668;BME280;24099;47.102;15.440;2022-07-21T03:41:04;97281.00;;;15.64;100.00
3668;BME280;24099;47.102;15.440;2022-07-21T03:43:32;97273.38;;;15.81;100.00
3668;BME280;24099;47.102;15.440;2022-07-21T03:46:00;97278.31;;;15.77;100.00
3668;BME280;24099;47.102;15.440;2022-07-21T03:48:27;97280.31;;;15.82;100.00
3668;BME280;24099;47.102;15.440;2022-07-21T03:50:55;97279.06;;;15.84;100.00
3668;BME280;24099;47.102;15.440;2022-07-21T03:53:22;97279.25;;;15.90;100.00
3668;BME280;24099;47.102;15.440;2022-07-21T03:55:51;97280.66;;;15.92;100.00
3668;BME280;24099;47.102;15.440;2022-07-21T03:58:19;97281.91;;;15.90;100.00
3668;BME280;24099;47.102;15.440;2022-07-21T04:00:46;97282.25;;;16.00;100.00
3668;BME280;24099;47.102;15.440;2022-07-21T04:03:14;97278.25;;;15.84;100.00
3668;BME280;24099;47.102;15.440;2022-07-21T04:05:42;97282.78;;;15.77;100.00
3668;BME280;24099;47.102;15.440;2022-07-21T04:08:10;97282.75;;;15.83;100.00
3668;BME280;24099;47.102;15.440;2022-07-21T04:10:41;97283.16;;;15.80;100.00
3668;BME280;24099;47.102;15.440;2022-07-21T04:13:13;97281.50;;;15.86;100.00
3668;BME280;24099;47.102;15.440;2022-07-21T04:15:40;97290.47;;;15.92;100.00
3668;BME280;24099;47.102;15.440;2022-07-21T04:18:09;97294.53;;;15.94;100.00
3668;BME280;24099;47.102;15.440;2022-07-21T04:20:37;97287.00;;;15.91;100.00
3668;BME280;24099;47.102;15.440;2022-07-21T04:23:05;97294.00;;;15.79;100.00
3668;BME280;24099;47.102;15.440;2022-07-21T04:25:33;97289.47;;;15.86;100.00
3668;BME280;24099;47.102;15.440;2022-07-21T04:28:02;97292.91;;;15.93;100.00
3668;BME280;24099;47.102;15.440;2022-07-21T04:30:31;97295.38;;;15.95;100.00
3668;BME280;24099;47.102;15.440;2022-07-21T04:32:59;97298.78;;;16.02;100.00
3668;BME280;24099;47.102;15.440;2022-07-21T04:35:27;97299.13;;;16.12;100.00
3668;BME280;24099;47.102;15.440;2022-07-21T04:37:55;97300.94;;;16.18;100.00
3668;BME280;24099;47.102;15.440;2022-07-21T04:40:23;97296.44;;;16.18;100.00
3668;BME280;24099;47.102;15.440;2022-07-21T04:42:50;97306.97;;;16.32;100.00
3668;BME280;24099;47.102;15.440;2022-07-21T04:45:18;97295.94;;;16.35;100.00
3668;BME280;24099;47.102;15.440;2022-07-21T04:47:50;97291.97;;;16.44;100.00
3668;BME280;24099;47.102;15.440;2022-07-21T04:50:21;97294.97;;;16.54;100.00
3668;BME280;24099;47.102;15.440;2022-07-21T04:52:49;97301.31;;;16.53;100.00
3668;BME280;24099;47.102;15.440;2022-07-21T04:55:18;97302.63;;;16.69;100.00
3668;BME280;24099;47.102;15.440;2022-07-21T04:57:48;97307.09;;;16.75;100.00
3668;BME280;24099;47.102;15.440;2022-07-21T05:00:19;97313.81;;;16.77;100.00
3668;BME280;24099;47.102;15.440;2022-07-21T05:02:50;97311.38;;;16.76;100.00
3668;BME280;24099;47.102;15.440;2022-07-21T05:05:18;97308.06;;;16.80;100.00
3668;BME280;24099;47.102;15.440;2022-07-21T05:07:46;97297.59;;;16.85;100.00
3668;BME280;24099;47.102;15.440;2022-07-21T05:10:16;97308.16;;;16.92;100.00
3668;BME280;24099;47.102;15.440;2022-07-21T05:12:47;97308.78;;;16.94;100.00
3668;BME280;24099;47.102;15.440;2022-07-21T05:15:14;97311.47;;;17.12;100.00
3668;BME280;24099;47.102;15.440;2022-07-21T05:17:44;97307.41;;;17.28;100.00
3668;BME280;24099;47.102;15.440;2022-07-21T05:20:13;97304.53;;;17.30;100.00
3668;BME280;24099;47.102;15.440;2022-07-21T05:22:41;97307.78;;;17.32;100.00
3668;BME280;24099;47.102;15.440;2022-07-21T05:25:09;97310.13;;;17.40;100.00
3668;BME280;24099;47.102;15.440;2022-07-21T05:27:37;97319.03;;;17.52;100.00
3668;BME280;24099;47.102;15.440;2022-07-21T05:30:06;97310.81;;;17.53;100.00
3668;BME280;24099;47.102;15.440;2022-07-21T05:32:34;97307.03;;;17.61;100.00
3668;BME280;24099;47.102;15.440;2022-07-21T05:35:01;97305.56;;;17.65;100.00
3668;BME280;24099;47.102;15.440;2022-07-21T05:37:35;97308.75;;;17.74;100.00
3668;BME280;24099;47.102;15.440;2022-07-21T05:40:04;97309.69;;;17.79;100.00
3668;BME280;24099;47.102;15.440;2022-07-21T05:42:32;97315.59;;;17.81;100.00
3668;BME280;24099;47.102;15.440;2022-07-21T05:45:00;97304.66;;;17.89;100.00
3668;BME280;24099;47.102;15.440;2022-07-21T05:47:28;97314.28;;;18.20;100.00
3668;BME280;24099;47.102;15.440;2022-07-21T05:49:57;97308.94;;;18.20;100.00
3668;BME280;24099;47.102;15.440;2022-07-21T05:52:25;97307.09;;;18.21;100.00
3668;BME280;24099;47.102;15.440;2022-07-21T05:54:54;97309.97;;;18.19;100.00
3668;BME280;24099;47.102;15.440;2022-07-21T05:57:21;97320.59;;;18.38;100.00
3668;BME280;24099;47.102;15.440;2022-07-21T05:59:52;97309.38;;;18.47;100.00
3668;BME280;24099;47.102;15.440;2022-07-21T06:02:22;97306.06;;;18.64;100.00
3668;BME280;24099;47.102;15.440;2022-07-21T06:04:50;97310.16;;;18.78;100.00
3668;BME280;24099;47.102;15.440;2022-07-21T06:07:18;97311.91;;;18.84;100.00
3668;BME280;24099;47.102;15.440;2022-07-21T06:09:46;97305.06;;;19.00;100.00
3668;BME280;24099;47.102;15.440;2022-07-21T06:12:15;97314.09;;;18.99;100.00
3668;BME280;24099;47.102;15.440;2022-07-21T06:14:43;97314.00;;;19.05;100.00
3668;BME280;24099;47.102;15.440;2022-07-21T06:17:11;97320.63;;;19.14;100.00
3668;BME280;24099;47.102;15.440;2022-07-21T06:19:38;97319.19;;;19.70;100.00
3668;BME280;24099;47.102;15.440;2022-07-21T06:22:06;97315.97;;;19.56;100.00
3668;BME280;24099;47.102;15.440;2022-07-21T06:24:33;97312.94;;;19.53;100.00
3668;BME280;24099;47.102;15.440;2022-07-21T06:27:01;97315.97;;;19.56;100.00
3668;BME280;24099;47.102;15.440;2022-07-21T06:29:30;97321.00;;;19.81;100.00
3668;BME280;24099;47.102;15.440;2022-07-21T06:31:57;97321.84;;;19.70;100.00
3668;BME280;24099;47.102;15.440;2022-07-21T06:34:25;97312.31;;;20.14;100.00
3668;BME280;24099;47.102;15.440;2022-07-21T06:36:52;97306.97;;;20.31;100.00
3668;BME280;24099;47.102;15.440;2022-07-21T06:39:20;97317.75;;;20.64;100.00
3668;BME280;24099;47.102;15.440;2022-07-21T06:41:47;97317.41;;;20.44;100.00
3668;BME280;24099;47.102;15.440;2022-07-21T06:44:15;97309.94;;;20.46;100.00
3668;BME280;24099;47.102;15.440;2022-07-21T06:46:44;97309.47;;;20.49;100.00
3668;BME280;24099;47.102;15.440;2022-07-21T06:49:11;97305.19;;;20.65;100.00
3668;BME280;24099;47.102;15.440;2022-07-21T06:51:39;97313.44;;;20.80;100.00
3668;BME280;24099;47.102;15.440;2022-07-21T06:54:06;97308.50;;;21.22;100.00
3668;BME280;24099;47.102;15.440;2022-07-21T06:56:34;97312.22;;;21.60;100.00
3668;BME280;24099;47.102;15.440;2022-07-21T06:59:01;97308.94;;;21.53;100.00
3668;BME280;24099;47.102;15.440;2022-07-21T07:01:29;97306.75;;;21.72;100.00
3668;BME280;24099;47.102;15.440;2022-07-21T07:03:57;97315.06;;;22.14;100.00
3668;BME280;24099;47.102;15.440;2022-07-21T07:06:25;97310.69;;;22.08;100.00
3668;BME280;24099;47.102;15.440;2022-07-21T07:08:52;97305.41;;;22.45;100.00
3668;BME280;24099;47.102;15.440;2022-07-21T07:11:20;97301.34;;;22.37;100.00
3668;BME280;24099;47.102;15.440;2022-07-21T07:13:47;97305.38;;;22.40;100.00
3668;BME280;24099;47.102;15.440;2022-07-21T07:16:15;97302.34;;;22.31;100.00
3668;BME280;24099;47.102;15.440;2022-07-21T07:18:42;97304.34;;;22.73;100.00
3668;BME280;24099;47.102;15.440;2022-07-21T07:21:13;97294.44;;;23.10;100.00
3668;BME280;24099;47.102;15.440;2022-07-21T07:23:41;97295.63;;;22.87;100.00
3668;BME280;24099;47.102;15.440;2022-07-21T07:26:09;97302.19;;;23.49;100.00
3668;BME280;24099;47.102;15.440;2022-07-21T07:28:37;97291.91;;;23.35;100.00
3668;BME280;24099;47.102;15.440;2022-07-21T07:31:04;97293.00;;;23.40;100.00
3668;BME280;24099;47.102;15.440;2022-07-21T07:33:32;97289.13;;;23.67;100.00
3668;BME280;24099;47.102;15.440;2022-07-21T07:35:59;97284.25;;;24.32;100.00
3668;BME280;24099;47.102;15.440;2022-07-21T07:38:28;97287.75;;;24.32;100.00
3668;BME280;24099;47.102;15.440;2022-07-21T07:40:56;97286.28;;;23.99;100.00
3668;BME280;24099;47.102;15.440;2022-07-21T07:43:23;97289.56;;;24.12;100.00
3668;BME280;24099;47.102;15.440;2022-07-21T07:45:51;97280.78;;;24.52;100.00
3668;BME280;24099;47.102;15.440;2022-07-21T07:48:20;97268.41;;;24.96;89.46
3668;BME280;24099;47.102;15.440;2022-07-21T07:50:47;97274.03;;;24.80;91.84
3668;BME280;24099;47.102;15.440;2022-07-21T07:53:15;97276.75;;;24.95;91.83
3668;BME280;24099;47.102;15.440;2022-07-21T07:55:44;97277.25;;;25.02;93.48
3668;BME280;24099;47.102;15.440;2022-07-21T07:58:11;97274.88;;;24.95;100.00
3668;BME280;24099;47.102;15.440;2022-07-21T08:00:39;97280.22;;;25.00;96.66
3668;BME280;24099;47.102;15.440;2022-07-21T08:03:06;97279.06;;;25.42;97.24
3668;BME280;24099;47.102;15.440;2022-07-21T08:05:34;97279.06;;;25.42;100.00
3668;BME280;24099;47.102;15.440;2022-07-21T08:08:02;97279.00;;;25.78;90.75
3668;BME280;24099;47.102;15.440;2022-07-21T08:10:30;97278.19;;;25.62;84.57
3668;BME280;24099;47.102;15.440;2022-07-21T08:12:59;97272.63;;;26.02;97.86
3668;BME280;24099;47.102;15.440;2022-07-21T08:15:26;97269.84;;;26.62;88.27
3668;BME280;24099;47.102;15.440;2022-07-21T08:17:54;97269.06;;;26.90;87.25
3668;BME280;24099;47.102;15.440;2022-07-21T08:20:21;97269.06;;;27.19;74.54
3668;BME280;24099;47.102;15.440;2022-07-21T08:22:49;97271.84;;;26.80;77.19
3668;BME280;24099;47.102;15.440;2022-07-21T08:25:17;97270.78;;;27.10;70.98
3668;BME280;24099;47.102;15.440;2022-07-21T08:27:44;97268.63;;;27.12;76.76
3668;BME280;24099;47.102;15.440;2022-07-21T08:30:13;97269.72;;;27.11;73.07
3668;BME280;24099;47.102;15.440;2022-07-21T08:32:41;97276.09;;;27.20;68.27
3668;BME280;24099;47.102;15.440;2022-07-21T08:35:09;97270.25;;;27.37;70.59
3668;BME280;24099;47.102;15.440;2022-07-21T08:37:38;97274.78;;;27.41;68.78
3668;BME280;24099;47.102;15.440;2022-07-21T08:40:09;97271.97;;;27.52;73.10
3668;BME280;24099;47.102;15.440;2022-07-21T08:42:37;97266.88;;;27.74;68.81
3668;BME280;24099;47.102;15.440;2022-07-21T08:45:06;97264.31;;;27.83;68.64
3668;BME280;24099;47.102;15.440;2022-07-21T08:47:35;97271.09;;;27.80;69.58
3668;BME280;24099;47.102;15.440;2022-07-21T08:50:03;97269.91;;;27.91;65.63
3668;BME280;24099;47.102;15.440;2022-07-21T08:52:32;97264.59;;;28.24;63.51
3668;BME280;24099;47.102;15.440;2022-07-21T08:54:59;97274.19;;;28.35;67.47
3668;BME280;24099;47.102;15.440;2022-07-21T08:57:27;97261.22;;;28.51;62.58
3668;BME280;24099;47.102;15.440;2022-07-21T08:59:55;97270.94;;;28.52;64.10
3668;BME280;24099;47.102;15.440;2022-07-21T09:02:31;97270.56;;;28.58;66.58
3668;BME280;24099;47.102;15.440;2022-07-21T09:05:00;97269.56;;;28.54;61.36
3668;BME280;24099;47.102;15.440;2022-07-21T09:07:48;97260.44;;;28.64;60.55
3668;BME280;24099;47.102;15.440;2022-07-21T09:10:20;97267.47;;;28.84;62.90
3668;BME280;24099;47.102;15.440;2022-07-21T09:12:51;97264.00;;;28.97;62.63
3668;BME280;24099;47.102;15.440;2022-07-21T09:15:22;97264.44;;;29.18;62.89
3668;BME280;24099;47.102;15.440;2022-07-21T09:18:06;97267.16;;;29.31;63.40
3668;BME280;24099;47.102;15.440;2022-07-21T09:20:37;97262.56;;;29.45;60.61
3668;BME280;24099;47.102;15.440;2022-07-21T09:23:09;97263.59;;;29.50;59.78
3668;BME280;24099;47.102;15.440;2022-07-21T09:25:40;97265.63;;;29.39;58.64
3668;BME280;24099;47.102;15.440;2022-07-21T09:28:19;97253.31;;;29.60;59.47
3668;BME280;24099;47.102;15.440;2022-07-21T09:31:00;97259.25;;;29.76;59.31
3668;BME280;24099;47.102;15.440;2022-07-21T09:33:31;97258.66;;;29.65;56.16
3668;BME280;24099;47.102;15.440;2022-07-21T09:36:08;97254.00;;;29.93;57.73
3668;BME280;24099;47.102;15.440;2022-07-21T09:38:38;97251.09;;;29.90;55.96
3668;BME280;24099;47.102;15.440;2022-07-21T09:41:11;97248.88;;;29.92;55.94
3668;BME280;24099;47.102;15.440;2022-07-21T09:43:44;97251.06;;;30.17;60.33
3668;BME280;24099;47.102;15.440;2022-07-21T09:46:15;97248.66;;;30.15;55.92
3668;BME280;24099;47.102;15.440;2022-07-21T09:48:46;97253.84;;;30.26;57.31
3668;BME280;24099;47.102;15.440;2022-07-21T09:51:31;97239.88;;;30.19;54.33
3668;BME280;24099;47.102;15.440;2022-07-21T09:54:01;97238.56;;;30.52;57.16
3668;BME280;24099;47.102;15.440;2022-07-21T09:56:32;97240.84;;;30.81;56.81
3668;BME280;24099;47.102;15.440;2022-07-21T09:59:01;97246.63;;;30.57;54.84
3668;BME280;24099;47.102;15.440;2022-07-21T10:01:30;97241.91;;;30.71;54.36
3668;BME280;24099;47.102;15.440;2022-07-21T10:03:59;97240.91;;;30.90;54.68
3668;BME280;24099;47.102;15.440;2022-07-21T10:06:31;97234.44;;;31.08;55.76
3668;BME280;24099;47.102;15.440;2022-07-21T10:09:03;97236.69;;;31.37;55.48
3668;BME280;24099;47.102;15.440;2022-07-21T10:11:32;97236.88;;;31.49;54.92
3668;BME280;24099;47.102;15.440;2022-07-21T10:13:59;97230.59;;;31.40;53.71
3668;BME280;24099;47.102;15.440;2022-07-21T10:16:29;97226.44;;;31.34;57.43
3668;BME280;24099;47.102;15.440;2022-07-21T10:19:02;97228.09;;;31.61;54.71
3668;BME280;24099;47.102;15.440;2022-07-21T10:21:42;97229.44;;;31.80;54.71
3668;BME280;24099;47.102;15.440;2022-07-21T10:24:14;97229.69;;;31.62;54.87
3668;BME280;24099;47.102;15.440;2022-07-21T10:27:01;97225.91;;;31.71;54.79
3668;BME280;24099;47.102;15.440;2022-07-21T10:29:55;97222.88;;;31.73;52.18
3668;BME280;24099;47.102;15.440;2022-07-21T10:32:28;97222.44;;;31.40;53.36
3668;BME280;24099;47.102;15.440;2022-07-21T10:34:58;97211.56;;;31.97;55.67
3668;BME280;24099;47.102;15.440;2022-07-21T10:37:48;97215.88;;;32.06;53.04
3668;BME280;24099;47.102;15.440;2022-07-21T10:40:41;97219.38;;;31.98;53.89
3668;BME280;24099;47.102;15.440;2022-07-21T10:43:40;97222.47;;;32.40;54.47
3668;BME280;24099;47.102;15.440;2022-07-21T10:46:35;97217.19;;;32.26;53.22
3668;BME280;24099;47.102;15.440;2022-07-21T10:49:07;97218.13;;;31.96;52.96
3668;BME280;24099;47.102;15.440;2022-07-21T10:51:37;97207.84;;;32.18;53.69
3668;BME280;24099;47.102;15.440;2022-07-21T10:54:24;97207.19;;;32.65;57.15
3668;BME280;24099;47.102;15.440;2022-07-21T10:57:29;97207.00;;;32.96;54.75
3668;BME280;24099;47.102;15.440;2022-07-21T11:00:27;97205.91;;;32.88;53.75
3668;BME280;24099;47.102;15.440;2022-07-21T11:02:58;97198.81;;;32.96;53.77
3668;BME280;24099;47.102;15.440;2022-07-21T11:05:28;97196.75;;;32.93;53.68
3668;BME280;24099;47.102;15.440;2022-07-21T11:08:16;97203.16;;;32.88;50.71
3668;BME280;24099;47.102;15.440;2022-07-21T11:10:49;97206.41;;;32.73;52.56
3668;BME280;24099;47.102;15.440;2022-07-21T11:13:18;97199.16;;;32.94;52.86
3668;BME280;24099;47.102;15.440;2022-07-21T11:15:57;97193.72;;;33.32;50.09
3668;BME280;24099;47.102;15.440;2022-07-21T11:18:28;97195.56;;;33.11;52.19
3668;BME280;24099;47.102;15.440;2022-07-21T11:21:17;97194.25;;;33.17;50.97
3668;BME280;24099;47.102;15.440;2022-07-21T11:23:47;97194.25;;;33.17;51.12
3668;BME280;24099;47.102;15.440;2022-07-21T11:26:19;97191.28;;;32.93;49.21
3668;BME280;24099;47.102;15.440;2022-07-21T11:29:05;97189.94;;;33.16;50.72
3668;BME280;24099;47.102;15.440;2022-07-21T11:31:46;97189.25;;;33.28;49.62
3668;BME280;24099;47.102;15.440;2022-07-21T11:34:14;97186.94;;;33.38;50.49
3668;BME280;24099;47.102;15.440;2022-07-21T11:36:41;97181.13;;;33.02;50.48
3668;BME280;24099;47.102;15.440;2022-07-21T11:39:14;97187.94;;;33.25;48.91
3668;BME280;24099;47.102;15.440;2022-07-21T11:41:43;97185.44;;;33.11;50.15
3668;BME280;24099;47.102;15.440;2022-07-21T11:44:12;97180.38;;;33.60;48.87
3668;BME280;24099;47.102;15.440;2022-07-21T11:46:51;97182.47;;;33.63;48.21
3668;BME280;24099;47.102;15.440;2022-07-21T11:49:19;97176.84;;;33.60;47.76
3668;BME280;24099;47.102;15.440;2022-07-21T11:51:52;97180.19;;;33.95;48.40
3668;BME280;24099;47.102;15.440;2022-07-21T11:54:26;97174.97;;;33.81;47.28
3668;BME280;24099;47.102;15.440;2022-07-21T11:56:57;97177.28;;;33.41;47.13
3668;BME280;24099;47.102;15.440;2022-07-21T11:59:26;97179.22;;;33.40;47.41
3668;BME280;24099;47.102;15.440;2022-07-21T12:01:58;97163.66;;;33.41;46.78
3668;BME280;24099;47.102;15.440;2022-07-21T12:04:42;97166.75;;;33.31;46.10
3668;BME280;24099;47.102;15.440;2022-07-21T12:07:18;97172.91;;;33.78;46.78
3668;BME280;24099;47.102;15.440;2022-07-21T12:09:49;97170.28;;;33.31;44.96
3668;BME280;24099;47.102;15.440;2022-07-21T12:12:31;97172.63;;;33.71;45.70
3668;BME280;24099;47.102;15.440;2022-07-21T12:15:12;97172.88;;;33.28;44.83
3668;BME280;24099;47.102;15.440;2022-07-21T12:17:44;97177.06;;;33.84;43.79
3668;BME280;24099;47.102;15.440;2022-07-21T12:20:13;97165.09;;;33.00;44.87
3668;BME280;24099;47.102;15.440;2022-07-21T12:22:43;97164.22;;;33.26;44.67
3668;BME280;24099;47.102;15.440;2022-07-21T12:25:16;97152.72;;;34.12;46.32
3668;BME280;24099;47.102;15.440;2022-07-21T12:27:47;97156.19;;;34.00;46.61
3668;BME280;24099;47.102;15.440;2022-07-21T12:30:34;97156.59;;;33.90;44.72
3668;BME280;24099;47.102;15.440;2022-07-21T12:33:08;97155.63;;;33.95;44.58
3668;BME280;24099;47.102;15.440;2022-07-21T12:35:38;97154.41;;;34.04;44.25
3668;BME280;24099;47.102;15.440;2022-07-21T12:38:09;97142.50;;;34.21;45.40
3668;BME280;24099;47.102;15.440;2022-07-21T12:40:40;97137.00;;;34.30;46.26
3668;BME280;24099;47.102;15.440;2022-07-21T12:43:16;97143.63;;;34.20;43.38
3668;BME280;24099;47.102;15.440;2022-07-21T12:45:54;97137.38;;;34.85;45.26
3668;BME280;24099;47.102;15.440;2022-07-21T12:48:25;97139.63;;;34.38;41.54
3668;BME280;24099;47.102;15.440;2022-07-21T12:51:05;97127.84;;;33.93;41.64
3668;BME280;24099;47.102;15.440;2022-07-21T12:53:36;97132.38;;;34.21;42.85
3668;BME280;24099;47.102;15.440;2022-07-21T12:56:05;97129.28;;;34.32;42.86
3668;BME280;24099;47.102;15.440;2022-07-21T12:58:38;97127.03;;;34.46;42.66
3668;BME280;24099;47.102;15.440;2022-07-21T13:01:06;97129.56;;;34.51;43.00
3668;BME280;24099;47.102;15.440;2022-07-21T13:03:34;97131.28;;;34.68;42.85
3668;BME280;24099;47.102;15.440;2022-07-21T13:06:06;97127.25;;;34.20;42.33
3668;BME280;24099;47.102;15.440;2022-07-21T13:08:34;97119.50;;;34.43;41.46
3668;BME280;24099;47.102;15.440;2022-07-21T13:11:02;97124.13;;;34.30;42.94